Rockdale, Illinois
Current Conditions -  °F | °C
As of 12:35 AM on Thursday 27 Nov 2014 (Local Time) from KJOT Reporting Station
Haze Haze  
Wind Chill: 26°   Ceiling: 3200
Heat Index: 26°   Visibility: 4mi
Dew Point: 22°   Wind: 3mph
Humidity: 85%   Direction: 320°NW
Pressure: 30.21"   Gusts: NA
Location:  41.4941°N, 88.1457°W
Report Text: KJOT 270635Z AUTO 32003KT 4SM BR OVC032 M03/M06 A3021 RMK AO2 T10351057
Loading
Personal Weather Stations






























Interactive Weather Map New forecast layout! Learn more

10-Day Weather Forecast

Advertisements
Track Severe Weather on mobile